Time;durP1;ratioP1;P1;durP2;ratioP2;P2;SDS_P1;SDS_P2;PMS_P1;PMS_P2;Temp;Humidity;BMP_temperature;BMP_pressure;BME280_temperature;BME280_humidity;BME280_pressure;Samples;Min_cycle;Max_cycle;Signal;HPM_P1;HPM_P2
2022/12/27 00:01:19;;;;;;;35.25;22.85;;;11.30;99.90;;;;;;5011753;28;20201;-77
2022/12/27 00:03:46;;;;;;;33.17;20.98;;;11.40;99.90;;;;;;5015679;28;20649;-75
2022/12/27 00:06:17;;;;;;;33.20;20.35;;;11.30;99.90;;;;;;4997662;28;20029;-75
2022/12/27 00:08:43;;;;;;;29.52;20.50;;;11.30;99.90;;;;;;5015582;28;20022;-75
2022/12/27 00:11:22;;;;;;;33.78;19.17;;;11.40;99.90;;;;;;5015878;28;20033;-75
2022/12/27 00:13:48;;;;;;;24.70;17.85;;;11.30;99.90;;;;;;4995792;28;20038;-75
2022/12/27 00:16:16;;;;;;;26.45;17.58;;;11.40;99.90;;;;;;4998035;28;20022;-76
2022/12/27 00:18:42;;;;;;;160.35;82.03;;;11.30;99.90;;;;;;5015439;28;20033;-76
2022/12/27 00:21:11;;;;;;;26.45;19.25;;;11.30;99.90;;;;;;5011432;28;20014;-76
2022/12/27 00:23:40;;;;;;;25.98;19.20;;;11.30;99.90;;;;;;4997583;28;20511;-76
2022/12/27 00:26:08;;;;;;;32.75;17.08;;;11.30;99.90;;;;;;4986311;28;20038;-76
2022/12/27 00:28:34;;;;;;;29.48;17.13;;;11.20;99.90;;;;;;4979103;28;20395;-76
2022/12/27 00:31:01;;;;;;;24.83;17.08;;;11.30;99.90;;;;;;4994460;28;20026;-76
2022/12/27 00:33:30;;;;;;;26.80;17.20;;;11.30;99.90;;;;;;4971243;28;20026;-76
2022/12/27 00:35:58;;;;;;;23.58;16.15;;;11.20;99.90;;;;;;4990719;28;20030;-76
2022/12/27 00:38:24;;;;;;;24.27;16.25;;;11.20;99.90;;;;;;4996607;28;20018;-77
2022/12/27 00:40:50;;;;;;;29.25;17.15;;;11.20;99.90;;;;;;4992417;28;20034;-77
2022/12/27 00:43:16;;;;;;;26.40;16.10;;;11.20;99.90;;;;;;4979986;28;20034;-76
2022/12/27 00:45:43;;;;;;;29.13;16.77;;;11.20;99.90;;;;;;4990952;28;20037;-77
2022/12/27 00:48:09;;;;;;;26.98;16.88;;;11.20;99.90;;;;;;4997633;28;20086;-76
2022/12/27 00:50:35;;;;;;;26.50;16.00;;;11.10;99.90;;;;;;4975453;28;20034;-76
2022/12/27 00:53:01;;;;;;;23.98;16.83;;;11.10;99.90;;;;;;4979871;28;20026;-76
2022/12/27 00:55:27;;;;;;;28.27;17.17;;;11.10;99.90;;;;;;4990523;28;20035;-76
2022/12/27 00:57:53;;;;;;;34.55;16.88;;;11.10;99.90;;;;;;4979895;28;20454;-76
2022/12/27 01:00:19;;;;;;;25.13;15.73;;;11.20;99.90;;;;;;4973998;28;20041;-76
2022/12/27 01:02:45;;;;;;;24.88;16.08;;;11.20;99.90;;;;;;4980062;28;20019;-76
2022/12/27 01:05:11;;;;;;;30.15;20.52;;;11.20;99.90;;;;;;4990705;28;20497;-77
2022/12/27 01:07:37;;;;;;;29.52;17.75;;;11.20;99.90;;;;;;4997095;28;20030;-76
2022/12/27 01:10:03;;;;;;;21.38;15.88;;;11.20;99.90;;;;;;4976912;28;20479;-76
2022/12/27 01:12:29;;;;;;;24.67;17.20;;;11.20;99.90;;;;;;4997157;28;20027;-76
2022/12/27 01:14:55;;;;;;;25.48;16.80;;;11.20;99.90;;;;;;4990219;28;20062;-76
2022/12/27 01:17:20;;;;;;;28.15;16.77;;;11.20;99.90;;;;;;4979691;28;20395;-76
2022/12/27 01:19:46;;;;;;;28.40;18.77;;;11.20;99.90;;;;;;4977452;28;20073;-76
2022/12/27 01:22:12;;;;;;;33.10;19.17;;;11.20;99.90;;;;;;4975503;28;20109;-76
2022/12/27 01:24:38;;;;;;;29.10;18.85;;;11.30;99.90;;;;;;4991828;28;20077;-76
2022/12/27 01:27:04;;;;;;;23.90;18.23;;;11.20;99.90;;;;;;5013490;28;20474;-76
2022/12/27 01:29:30;;;;;;;27.10;16.98;;;11.20;99.90;;;;;;5012181;28;20033;-76
2022/12/27 01:31:56;;;;;;;24.60;16.63;;;11.30;99.90;;;;;;5014845;28;20497;-77
2022/12/27 01:34:21;;;;;;;26.90;18.23;;;11.30;99.90;;;;;;5006753;28;20084;-76
2022/12/27 01:36:47;;;;;;;23.42;16.77;;;11.30;99.90;;;;;;5015552;28;20040;-76
2022/12/27 01:39:13;;;;;;;26.00;18.38;;;11.30;99.90;;;;;;5014317;28;20122;-76
2022/12/27 01:44:38;;;;;;;23.65;17.85;;;11.30;99.90;;;;;;5014012;28;20037;-77
2022/12/27 01:47:28;;;;;;;21.08;16.42;;;11.30;99.90;;;;;;4993849;28;20014;-76
2022/12/27 01:50:01;;;;;;;22.83;14.95;;;11.30;99.90;;;;;;4966237;28;20035;-77
2022/12/27 01:52:37;;;;;;;26.00;15.88;;;11.30;99.90;;;;;;5015279;28;20022;-76
2022/12/27 01:55:13;;;;;;;24.67;16.33;;;11.30;99.90;;;;;;4985648;28;20029;-76
2022/12/27 01:57:39;;;;;;;23.50;15.57;;;11.30;99.90;;;;;;5016269;28;20397;-76
2022/12/27 02:00:06;;;;;;;22.65;15.13;;;11.30;99.90;;;;;;5009518;28;20061;-77
2022/12/27 02:02:32;;;;;;;19.60;13.38;;;11.30;99.90;;;;;;4998609;28;20022;-76
2022/12/27 02:04:58;;;;;;;20.25;13.65;;;11.30;99.90;;;;;;5010735;28;20397;-76
2022/12/27 02:07:30;;;;;;;22.85;13.43;;;11.30;99.90;;;;;;5016397;28;20106;-76
2022/12/27 02:09:58;;;;;;;14.10;10.45;;;11.30;99.90;;;;;;4996396;28;20061;-76
2022/12/27 02:12:25;;;;;;;15.75;11.77;;;11.30;99.90;;;;;;4998656;28;20026;-76
2022/12/27 02:14:51;;;;;;;14.82;9.65;;;11.30;99.90;;;;;;4992812;28;20193;-76
2022/12/27 02:17:24;;;;;;;11.00;8.88;;;11.30;99.90;;;;;;5009809;28;20105;-76
2022/12/27 02:19:56;;;;;;;15.73;9.70;;;11.30;99.90;;;;;;4997006;28;20045;-76
2022/12/27 02:25:52;;;;;;;14.20;9.10;;;11.30;99.90;;;;;;5013136;28;20060;-76
2022/12/27 02:28:32;;;;;;;13.35;8.30;;;11.30;99.90;;;;;;5013149;28;20026;-76
2022/12/27 02:31:05;;;;;;;16.37;8.10;;;11.20;99.90;;;;;;5012087;28;20033;-76
2022/12/27 02:33:36;;;;;;;10.45;8.25;;;11.20;99.90;;;;;;5011466;28;20022;-76
2022/12/27 02:36:10;;;;;;;9.45;7.88;;;11.20;99.90;;;;;;5015412;28;20160;-76
2022/12/27 02:38:41;;;;;;;11.73;8.63;;;11.20;99.90;;;;;;4999378;28;20022;-76
2022/12/27 02:59:18;;;;;;;11.38;8.13;;;11.00;99.90;;;;;;4976149;28;20049;-76
2022/12/27 03:05:43;;;;;;;12.35;9.13;;;10.60;99.90;;;;;;5009509;28;20537;-76
2022/12/27 03:08:21;;;;;;;14.60;8.77;;;10.60;99.90;;;;;;4965220;28;20122;-76
2022/12/27 03:16:59;;;;;;;13.82;9.65;;;10.60;99.90;;;;;;4976750;28;20041;-76
2022/12/27 03:25:28;;;;;;;16.50;8.88;;;10.70;99.90;;;;;;5012588;28;20053;-76
2022/12/27 03:33:49;;;;;;;12.20;8.88;;;10.70;99.90;;;;;;5008248;28;20441;-77
2022/12/27 03:39:15;;;;;;;12.02;8.00;;;10.70;99.90;;;;;;5012176;28;20033;-77
2022/12/27 03:44:36;;;;;;;10.57;8.48;;;10.70;99.90;;;;;;5012028;28;20038;-77
2022/12/27 03:47:33;;;;;;;11.63;8.15;;;10.80;99.90;;;;;;5017857;28;20022;-77
2022/12/27 03:50:04;;;;;;;17.92;8.35;;;10.70;99.90;;;;;;5013458;28;20386;-76
2022/12/27 03:52:40;;;;;;;13.38;8.77;;;10.70;99.90;;;;;;5017918;28;20474;-77
2022/12/27 03:55:08;;;;;;;9.63;8.38;;;10.80;99.90;;;;;;5011141;28;20022;-76
2022/12/27 03:57:34;;;;;;;12.65;9.15;;;10.70;99.90;;;;;;5018057;28;20068;-77
2022/12/27 04:00:00;;;;;;;11.43;7.45;;;10.80;99.90;;;;;;5009680;28;20022;-76
2022/12/27 04:02:26;;;;;;;11.75;8.77;;;10.80;99.90;;;;;;5014849;28;20049;-76
2022/12/27 04:04:52;;;;;;;12.32;7.90;;;10.80;99.90;;;;;;4992449;28;20478;-76
2022/12/27 04:07:18;;;;;;;14.70;7.25;;;10.80;99.90;;;;;;4999561;28;20068;-76
2022/12/27 04:37:07;;;;;;;12.02;8.52;;;11.00;99.90;;;;;;5016373;28;20133;-76
2022/12/27 04:39:33;;;;;;;11.20;8.80;;;11.00;99.90;;;;;;4992695;28;20395;-76
2022/12/27 04:56:04;;;;;;;11.57;9.07;;;11.00;99.90;;;;;;5012801;28;20037;-77
2022/12/27 04:58:30;;;;;;;14.88;8.38;;;11.00;99.90;;;;;;4998614;28;20036;-76
2022/12/27 05:03:47;;;;;;;11.07;8.23;;;11.00;99.90;;;;;;5014831;28;20045;-76
2022/12/27 05:06:13;;;;;;;14.82;8.73;;;11.00;99.90;;;;;;4997613;28;20017;-76
2022/12/27 05:14:13;;;;;;;8.13;7.20;;;11.00;99.90;;;;;;5012520;28;20405;-76
2022/12/27 05:16:41;;;;;;;10.35;7.40;;;11.00;99.90;;;;;;5013585;28;20022;-77
2022/12/27 05:19:09;;;;;;;12.35;7.60;;;11.00;99.90;;;;;;5011003;28;20498;-77
2022/12/27 05:25:33;;;;;;;11.85;7.43;;;11.00;99.90;;;;;;4996394;28;20022;-77
2022/12/27 05:27:11;;;;;;;9.93;7.18;;;10.90;99.90;;;;;;5013164;28;20049;-77
2022/12/27 05:29:36;;;;;;;11.02;7.25;;;11.00;99.90;;;;;;5012931;28;20018;-76
2022/12/27 05:32:02;;;;;;;9.70;7.05;;;11.00;99.90;;;;;;5010236;28;20105;-76
2022/12/27 05:34:28;;;;;;;13.95;7.60;;;10.90;99.90;;;;;;4986132;28;20106;-77
2022/12/27 05:36:54;;;;;;;15.77;8.35;;;10.90;99.90;;;;;;4995085;28;20049;-77
2022/12/27 05:39:20;;;;;;;12.23;8.82;;;10.90;99.90;;;;;;5010477;28;20107;-77
2022/12/27 05:41:46;;;;;;;14.52;8.80;;;10.90;99.90;;;;;;5015550;28;20026;-77
2022/12/27 05:44:11;;;;;;;14.05;9.02;;;10.90;99.90;;;;;;5012975;28;20017;-76
2022/12/27 05:46:37;;;;;;;16.50;9.57;;;10.90;99.90;;;;;;5015969;28;20393;-76
2022/12/27 05:49:03;;;;;;;13.10;9.98;;;10.90;99.90;;;;;;5013356;28;20534;-76
2022/12/27 05:51:29;;;;;;;15.20;10.00;;;10.90;99.90;;;;;;4997156;28;20161;-76
2022/12/27 05:53:55;;;;;;;11.65;9.15;;;10.80;99.90;;;;;;5018040;28;20547;-76
2022/12/27 05:56:21;;;;;;;14.10;9.98;;;10.80;99.90;;;;;;4999123;28;20097;-76
2022/12/27 05:58:47;;;;;;;17.10;9.90;;;10.80;99.90;;;;;;5017090;28;20083;-77
2022/12/27 06:01:16;;;;;;;10.70;9.38;;;10.80;99.90;;;;;;5013521;28;20026;-76
2022/12/27 06:03:42;;;;;;;9.75;7.55;;;10.80;99.90;;;;;;5018043;28;20022;-76
2022/12/27 06:06:09;;;;;;;11.95;7.85;;;10.80;99.90;;;;;;5017779;28;20054;-77
2022/12/27 06:08:35;;;;;;;10.00;6.45;;;10.80;99.90;;;;;;5000397;28;20097;-77
2022/12/27 06:11:16;;;;;;;10.90;6.88;;;10.80;99.90;;;;;;5014319;28;20037;-77
2022/12/27 06:13:43;;;;;;;8.43;6.07;;;10.80;99.90;;;;;;4997832;28;20025;-77
2022/12/27 06:16:11;;;;;;;8.10;5.93;;;10.70;99.90;;;;;;4996112;28;20438;-78
2022/12/27 06:18:38;;;;;;;7.95;5.40;;;10.70;99.90;;;;;;5017563;28;20024;-78
2022/12/27 06:21:11;;;;;;;15.25;7.18;;;10.70;99.90;;;;;;5014832;28;20017;-78
2022/12/27 06:23:39;;;;;;;67.05;33.85;;;10.70;99.90;;;;;;5016994;28;20014;-78
2022/12/27 06:26:06;;;;;;;157.63;78.60;;;10.60;99.90;;;;;;4990058;28;20046;-78
2022/12/27 06:28:33;;;;;;;11.73;5.85;;;10.60;99.90;;;;;;4998233;28;20576;-78
2022/12/27 06:31:00;;;;;;;11.02;7.28;;;10.70;99.90;;;;;;4976838;28;20038;-78
2022/12/27 06:33:26;;;;;;;11.65;6.07;;;10.60;99.90;;;;;;4996674;28;20023;-78
2022/12/27 06:35:52;;;;;;;7.90;5.30;;;10.60;99.90;;;;;;4992623;28;20022;-78
2022/12/27 06:38:18;;;;;;;7.50;5.38;;;10.60;99.90;;;;;;4998818;28;20032;-78
2022/12/27 06:40:44;;;;;;;6.03;4.82;;;10.60;99.90;;;;;;4991862;28;20521;-78
2022/12/27 06:43:10;;;;;;;10.18;4.93;;;10.60;99.90;;;;;;4998346;28;20501;-78
2022/12/27 06:45:35;;;;;;;5.28;4.18;;;10.60;99.90;;;;;;4994263;28;20023;-78
2022/12/27 06:48:02;;;;;;;6.15;5.03;;;10.60;99.90;;;;;;4996930;28;20390;-77
2022/12/27 06:50:27;;;;;;;10.10;7.43;;;10.60;99.90;;;;;;4992752;28;20041;-77
2022/12/27 06:52:53;;;;;;;9.40;7.28;;;10.60;99.90;;;;;;4978725;28;20018;-77
2022/12/27 06:55:19;;;;;;;9.70;7.45;;;10.60;99.90;;;;;;4978616;28;20541;-77
2022/12/27 06:57:45;;;;;;;8.75;6.22;;;10.50;99.90;;;;;;4996075;28;20035;-77
2022/12/27 07:00:12;;;;;;;8.13;5.55;;;10.50;99.90;;;;;;4975054;28;20026;-77
2022/12/27 07:02:39;;;;;;;7.68;5.95;;;10.50;99.90;;;;;;4996912;28;20398;-77
2022/12/27 07:05:05;;;;;;;8.25;5.28;;;10.50;99.90;;;;;;4992332;28;20109;-77
2022/12/27 07:07:31;;;;;;;10.40;4.65;;;10.40;99.90;;;;;;4993115;28;20089;-77
2022/12/27 07:09:57;;;;;;;5.65;4.65;;;10.40;99.90;;;;;;4995180;28;20030;-77
2022/12/27 07:12:23;;;;;;;7.45;5.13;;;10.40;99.90;;;;;;4980870;28;20109;-77
2022/12/27 07:14:49;;;;;;;6.07;5.25;;;10.40;99.90;;;;;;4992776;28;20069;-77
2022/12/27 07:17:15;;;;;;;9.43;4.70;;;10.30;99.90;;;;;;4997205;28;20069;-77
2022/12/27 07:19:41;;;;;;;5.85;4.82;;;10.30;99.90;;;;;;4977198;28;20049;-78
2022/12/27 07:22:07;;;;;;;7.97;6.75;;;10.20;99.90;;;;;;4995543;28;20018;-77
2022/12/27 07:24:32;;;;;;;7.68;5.60;;;10.20;99.90;;;;;;4990660;28;20054;-77
2022/12/27 07:27:00;;;;;;;10.38;5.90;;;10.10;99.90;;;;;;5014020;28;20033;-77
2022/12/27 07:29:26;;;;;;;8.90;5.50;;;10.10;99.90;;;;;;4996700;28;20669;-79
2022/12/27 07:31:53;;;;;;;8.65;6.53;;;10.10;99.90;;;;;;5015343;28;20030;-79
2022/12/27 07:34:20;;;;;;;7.47;6.07;;;10.10;99.90;;;;;;5011951;28;20105;-79
2022/12/27 07:36:47;;;;;;;7.18;5.82;;;10.10;99.90;;;;;;5016038;28;20026;-79
2022/12/27 07:39:13;;;;;;;8.25;6.32;;;10.00;99.90;;;;;;5013453;28;20050;-79
2022/12/27 07:41:39;;;;;;;9.35;6.80;;;10.00;99.90;;;;;;5015272;28;20029;-79
2022/12/27 07:44:06;;;;;;;9.63;5.65;;;10.00;99.90;;;;;;5012682;28;20402;-79
2022/12/27 07:46:32;;;;;;;11.50;5.65;;;10.00;99.90;;;;;;5014235;28;20049;-79
2022/12/27 07:48:58;;;;;;;9.77;5.63;;;10.10;99.90;;;;;;5013632;28;20033;-79
2022/12/27 07:51:26;;;;;;;9.07;5.40;;;10.10;99.90;;;;;;5003238;28;20038;-79
2022/12/27 07:53:52;;;;;;;10.38;6.43;;;10.20;99.90;;;;;;4987220;28;20026;-78
2022/12/27 07:56:28;;;;;;;9.77;6.22;;;10.20;99.90;;;;;;4998946;28;20514;-78
2022/12/27 07:58:56;;;;;;;10.52;5.72;;;10.30;99.90;;;;;;4984931;28;20034;-79
2022/12/27 08:01:23;;;;;;;21.02;14.85;;;10.30;99.90;;;;;;4997175;28;20071;-79
2022/12/27 08:03:49;;;;;;;9.38;5.78;;;10.40;99.90;;;;;;4996197;28;20114;-79
2022/12/27 08:06:27;;;;;;;8.63;5.30;;;10.30;99.90;;;;;;5002886;28;20023;-78
2022/12/27 08:08:56;;;;;;;12.45;6.03;;;10.40;99.90;;;;;;5016010;28;20026;-78
2022/12/27 08:11:22;;;;;;;10.82;6.55;;;10.50;99.90;;;;;;4999144;28;20045;-79
2022/12/27 08:13:48;;;;;;;9.48;6.10;;;10.50;99.90;;;;;;4997702;28;20030;-78
2022/12/27 08:16:17;;;;;;;6.22;5.47;;;10.60;99.90;;;;;;5012512;28;20034;-78
2022/12/27 08:18:44;;;;;;;9.25;6.68;;;10.60;99.90;;;;;;5014042;28;20026;-79
2022/12/27 08:21:10;;;;;;;8.68;6.72;;;10.60;99.90;;;;;;5012590;28;20036;-79
2022/12/27 08:23:35;;;;;;;7.78;5.57;;;10.60;99.90;;;;;;4998648;28;20116;-78
2022/12/27 08:26:01;;;;;;;13.95;5.45;;;10.70;99.90;;;;;;5013210;28;20507;-79
2022/12/27 08:28:30;;;;;;;8.57;6.25;;;10.70;99.90;;;;;;5017303;28;20018;-78
2022/12/27 08:30:57;;;;;;;8.52;6.57;;;10.80;99.90;;;;;;4998533;28;20061;-79
2022/12/27 08:33:23;;;;;;;8.50;5.28;;;10.70;99.90;;;;;;4995197;28;20026;-78
2022/12/27 08:35:49;;;;;;;10.43;6.03;;;10.70;99.90;;;;;;5009674;28;20038;-78
2022/12/27 08:38:15;;;;;;;12.80;6.13;;;10.80;99.90;;;;;;4999567;28;20029;-79
2022/12/27 08:40:42;;;;;;;9.45;5.63;;;10.90;99.90;;;;;;5010087;28;20444;-79
2022/12/27 08:43:09;;;;;;;6.50;5.57;;;11.00;99.90;;;;;;5017159;28;20014;-79
2022/12/27 08:45:35;;;;;;;10.10;6.55;;;11.10;99.90;;;;;;5013228;28;20026;-79
2022/12/27 08:48:05;;;;;;;8.45;6.55;;;11.20;99.90;;;;;;4995575;28;20105;-78
2022/12/27 08:50:31;;;;;;;6.03;5.30;;;11.30;99.90;;;;;;5005353;28;20120;-78
2022/12/27 08:52:59;;;;;;;9.63;6.00;;;11.30;99.90;;;;;;5011693;28;20022;-77
2022/12/27 08:55:27;;;;;;;9.43;5.22;;;11.30;99.90;;;;;;5014439;28;20042;-77
2022/12/27 08:58:13;;;;;;;8.98;5.47;;;11.40;99.90;;;;;;5016662;28;20018;-78
2022/12/27 09:00:39;;;;;;;8.27;4.20;;;11.30;99.90;;;;;;5011143;28;20052;-78
2022/12/27 09:03:04;;;;;;;7.75;5.22;;;11.30;99.90;;;;;;4999244;28;20014;-77
2022/12/27 09:05:30;;;;;;;11.55;5.43;;;11.40;99.90;;;;;;4995673;28;20030;-76
2022/12/27 09:07:57;;;;;;;9.07;5.15;;;11.40;99.90;;;;;;4997594;28;21339;-76
2022/12/27 09:10:23;;;;;;;6.35;4.53;;;11.40;99.90;;;;;;5002284;28;20034;-77
2022/12/27 09:12:49;;;;;;;5.90;4.80;;;11.50;99.90;;;;;;5001573;28;20517;-77
2022/12/27 09:15:15;;;;;;;10.73;4.53;;;11.60;99.90;;;;;;4997477;28;20030;-77
2022/12/27 09:17:41;;;;;;;6.40;4.50;;;11.70;99.90;;;;;;4981597;28;20157;-77
2022/12/27 09:20:08;;;;;;;71.90;33.67;;;11.60;99.90;;;;;;5003716;28;20050;-76
2022/12/27 09:22:34;;;;;;;448.33;223.73;;;11.70;99.90;;;;;;4984801;28;20074;-77
2022/12/27 09:25:00;;;;;;;27.45;14.05;;;11.80;99.90;;;;;;5000011;28;20039;-76
2022/12/27 09:27:26;;;;;;;8.35;5.28;;;11.80;99.90;;;;;;4999245;28;20014;-77
2022/12/27 09:29:52;;;;;;;7.45;5.60;;;11.70;99.90;;;;;;5000953;28;20034;-76
2022/12/27 09:32:17;;;;;;;11.55;5.10;;;11.70;99.90;;;;;;5001678;28;20483;-76
2022/12/27 09:34:43;;;;;;;9.50;6.00;;;11.60;99.90;;;;;;5005868;28;20058;-76
2022/12/27 09:37:11;;;;;;;10.52;5.35;;;11.60;99.90;;;;;;5002496;28;20046;-77
2022/12/27 09:39:37;;;;;;;42.10;20.15;;;11.70;99.90;;;;;;4995870;28;20495;-77
2022/12/27 09:42:11;;;;;;;53.08;26.52;;;11.70;99.90;;;;;;4985327;28;20033;-77
2022/12/27 09:44:43;;;;;;;5.90;4.20;;;11.60;99.90;;;;;;5001931;28;20028;-77
2022/12/27 09:47:18;;;;;;;9.82;4.40;;;11.70;99.90;;;;;;5000389;28;20422;-76
2022/12/27 09:49:59;;;;;;;10.32;5.47;;;11.70;99.90;;;;;;4986421;28;20030;-76
2022/12/27 09:52:33;;;;;;;9.00;5.40;;;11.90;99.90;;;;;;5002671;28;20022;-76
2022/12/27 09:55:09;;;;;;;15.15;8.60;;;12.00;99.90;;;;;;4984123;28;20034;-77
2022/12/27 09:57:38;;;;;;;13.90;7.80;;;12.10;99.90;;;;;;4998265;28;20034;-77
2022/12/27 10:00:19;;;;;;;10.77;5.40;;;12.20;99.90;;;;;;5013617;28;20053;-77
2022/12/27 10:02:46;;;;;;;6.90;4.57;;;12.30;99.90;;;;;;5017357;28;20066;-77
2022/12/27 10:05:25;;;;;;;440.40;230.15;;;12.30;99.90;;;;;;4995003;28;20026;-77
2022/12/27 10:08:20;;;;;;;21.25;10.68;;;12.30;99.90;;;;;;5014990;28;20026;-77
2022/12/27 10:11:35;;;;;;;21.55;10.98;;;12.40;99.90;;;;;;5011074;28;20442;-77
2022/12/27 10:14:24;;;;;;;9.00;4.25;;;12.50;99.90;;;;;;5008232;28;20052;-78
2022/12/27 10:17:23;;;;;;;169.88;94.18;;;12.60;99.90;;;;;;5014118;28;20117;-77
2022/12/27 10:20:14;;;;;;;11.98;7.10;;;12.60;99.90;;;;;;4957104;28;20064;-77
2022/12/27 10:22:57;;;;;;;4.15;2.90;;;12.50;99.90;;;;;;5018085;28;20026;-77
2022/12/27 10:25:24;;;;;;;5.53;3.72;;;12.50;99.90;;;;;;4991822;28;20058;-77
2022/12/27 10:28:00;;;;;;;4.43;3.60;;;12.50;99.90;;;;;;5000135;28;20026;-77
2022/12/27 10:30:29;;;;;;;5.07;3.92;;;12.50;99.90;;;;;;5009885;28;20505;-79
2022/12/27 10:32:55;;;;;;;14.85;10.02;;;12.60;99.90;;;;;;5017247;28;20022;-76
2022/12/27 10:35:23;;;;;;;31.75;19.13;;;12.80;99.90;;;;;;5010717;28;20026;-76
2022/12/27 10:37:49;;;;;;;9.82;3.83;;;12.80;99.90;;;;;;5018131;28;20090;-77
2022/12/27 10:40:41;;;;;;;12.57;6.47;;;12.80;99.90;;;;;;5010466;28;20483;-76
2022/12/27 10:43:21;;;;;;;4.10;3.33;;;12.90;99.90;;;;;;4993596;28;20030;-76
2022/12/27 10:45:47;;;;;;;7.70;4.00;;;12.90;99.90;;;;;;5009643;28;20109;-76
2022/12/27 10:48:23;;;;;;;8.15;4.43;;;12.90;99.90;;;;;;5011499;28;20425;-76
2022/12/27 10:51:05;;;;;;;7.22;4.65;;;13.00;99.90;;;;;;5008909;28;20387;-76
2022/12/27 10:53:37;;;;;;;6.15;4.45;;;12.90;99.90;;;;;;4996489;28;20030;-76
2022/12/27 10:56:19;;;;;;;9.23;5.72;;;12.90;99.90;;;;;;5008432;28;20022;-77
2022/12/27 10:58:47;;;;;;;4.75;3.40;;;12.80;99.90;;;;;;4996758;28;20591;-76
2022/12/27 11:01:25;;;;;;;7.85;3.50;;;12.90;99.90;;;;;;5014947;28;20018;-76
2022/12/27 11:04:08;;;;;;;6.85;3.88;;;12.90;99.90;;;;;;4999286;28;20038;-76
2022/12/27 11:06:34;;;;;;;4.32;2.83;;;12.90;99.90;;;;;;4993416;28;20117;-76
2022/12/27 11:09:28;;;;;;;4.40;3.22;;;12.80;99.90;;;;;;4997726;28;20065;-76
2022/12/27 11:12:15;;;;;;;3.33;2.53;;;12.80;99.90;;;;;;5014131;28;20064;-76
2022/12/27 11:15:01;;;;;;;11.32;6.40;;;12.80;99.90;;;;;;4997571;28;20022;-76
2022/12/27 11:17:57;;;;;;;5.80;2.88;;;12.70;99.90;;;;;;5000191;28;20041;-76
2022/12/27 11:20:31;;;;;;;49.10;25.92;;;12.70;99.90;;;;;;5010403;28;20081;-76
2022/12/27 11:23:04;;;;;;;9.07;5.70;;;12.70;99.90;;;;;;4998882;28;20048;-76
2022/12/27 11:25:31;;;;;;;9.00;5.35;;;12.90;99.90;;;;;;5013936;28;20497;-76
2022/12/27 11:28:04;;;;;;;4.63;2.70;;;13.00;99.90;;;;;;5000735;28;20026;-76
2022/12/27 11:30:38;;;;;;;2.72;2.17;;;13.00;99.90;;;;;;5009446;28;20026;-75
2022/12/27 11:33:23;;;;;;;6.07;2.60;;;13.00;99.90;;;;;;5011761;28;20436;-76
2022/12/27 11:35:52;;;;;;;3.85;2.80;;;13.00;99.90;;;;;;5007334;28;20092;-75
2022/12/27 11:38:34;;;;;;;4.72;2.80;;;13.10;99.90;;;;;;4996502;28;20095;-76
2022/12/27 11:41:07;;;;;;;5.18;2.63;;;13.20;99.90;;;;;;5009828;28;20018;-76
2022/12/27 11:43:46;;;;;;;4.18;3.45;;;13.20;99.90;;;;;;4999486;28;20027;-76
2022/12/27 11:46:44;;;;;;;5.05;3.47;;;13.20;99.90;;;;;;4991506;28;20130;-76
2022/12/27 11:49:21;;;;;;;4.43;3.08;;;13.20;99.90;;;;;;4995556;28;20042;-76
2022/12/27 11:52:06;;;;;;;21.90;13.93;;;13.20;99.90;;;;;;4990812;28;20026;-76
2022/12/27 11:55:02;;;;;;;4.78;2.80;;;13.20;99.90;;;;;;5009898;28;20478;-76
2022/12/27 11:58:00;;;;;;;5.35;3.30;;;13.30;99.90;;;;;;5008642;28;20105;-76
2022/12/27 12:00:54;;;;;;;5.43;3.17;;;13.50;99.90;;;;;;5007791;28;20042;-76
2022/12/27 12:03:43;;;;;;;3.92;2.78;;;13.60;99.90;;;;;;4981743;28;20038;-75
2022/12/27 12:06:30;;;;;;;4.20;2.40;;;13.60;99.90;;;;;;4985034;28;20395;-76
2022/12/27 12:09:28;;;;;;;12.15;7.13;;;13.80;99.90;;;;;;4994731;28;20034;-76
2022/12/27 12:12:17;;;;;;;4.20;2.80;;;13.90;99.90;;;;;;5003265;28;20050;-76
2022/12/27 12:15:11;;;;;;;6.93;3.97;;;13.70;99.90;;;;;;4980774;28;20538;-76
2022/12/27 12:18:15;;;;;;;3.60;2.83;;;13.90;99.90;;;;;;4998368;28;20033;-76
2022/12/27 12:20:42;;;;;;;5.50;4.72;;;14.30;99.90;;;;;;4983358;28;20103;-77
2022/12/27 12:23:33;;;;;;;22.52;18.77;;;14.50;99.90;;;;;;4999034;28;20022;-76
2022/12/27 12:26:05;;;;;;;4.03;2.85;;;14.70;99.90;;;;;;5011175;28;20052;-74
2022/12/27 12:28:57;;;;;;;4.72;3.25;;;14.70;99.90;;;;;;4998400;28;20498;-75
2022/12/27 12:31:41;;;;;;;58.00;33.58;;;14.50;99.90;;;;;;5013831;28;20079;-74
2022/12/27 12:34:28;;;;;;;8.52;5.20;;;14.50;99.90;;;;;;5012920;28;20075;-74
2022/12/27 12:37:19;;;;;;;7.82;3.85;;;14.30;99.90;;;;;;5014434;28;20057;-74
2022/12/27 12:40:00;;;;;;;117.45;62.28;;;14.00;99.90;;;;;;4989284;28;20041;-75
2022/12/27 12:42:34;;;;;;;;;;;13.90;99.90;;;;;;5013552;28;20026;-75
2022/12/27 12:45:06;;;;;;;13.07;7.03;;;13.80;99.90;;;;;;4993805;28;19976;-75
2022/12/27 12:48:05;;;;;;;8.55;4.38;;;13.60;99.90;;;;;;4997859;28;20010;-75
2022/12/27 12:50:51;;;;;;;5.18;3.38;;;13.60;99.90;;;;;;4996020;28;20042;-75
2022/12/27 12:53:24;;;;;;;69.93;44.38;;;13.70;99.90;;;;;;4992942;28;20026;-75
2022/12/27 12:56:05;;;;;;;10.48;4.88;;;13.60;99.90;;;;;;5009044;28;20037;-75
2022/12/27 12:58:40;;;;;;;32.53;19.63;;;13.50;99.90;;;;;;5014855;28;20628;-75
2022/12/27 13:01:36;;;;;;;8.93;4.80;;;13.60;99.90;;;;;;5010661;28;20109;-75
2022/12/27 13:04:30;;;;;;;7.35;4.35;;;13.60;99.90;;;;;;5011723;28;20053;-75
2022/12/27 13:07:25;;;;;;;6.38;3.97;;;13.70;99.90;;;;;;5013637;28;20076;-74
2022/12/27 13:09:54;;;;;;;7.88;4.03;;;13.70;99.90;;;;;;4993881;28;20068;-75
2022/12/27 13:12:36;;;;;;;5.78;3.33;;;13.80;99.90;;;;;;5011561;28;20032;-75
2022/12/27 13:15:28;;;;;;;36.67;22.58;;;14.00;99.90;;;;;;4993630;28;20370;-75
2022/12/27 13:18:31;;;;;;;5.28;3.70;;;14.10;99.90;;;;;;5013722;28;20536;-75
2022/12/27 13:21:05;;;;;;;78.72;47.35;;;14.20;99.90;;;;;;5011427;28;20017;-75
2022/12/27 13:23:59;;;;;;;8.18;3.58;;;14.20;99.90;;;;;;5016748;28;20394;-75
2022/12/27 13:26:43;;;;;;;4.57;3.03;;;14.30;99.90;;;;;;5000940;28;20092;-75
2022/12/27 13:30:12;;;;;;;24.55;14.63;;;14.30;99.90;;;;;;5013149;28;20152;-75
2022/12/27 13:33:28;;;;;;;10.75;5.60;;;14.10;99.90;;;;;;4914057;29;20040;-75
2022/12/27 13:36:12;;;;;;;6.22;3.70;;;14.10;99.90;;;;;;4840797;29;20042;-75
2022/12/27 13:38:44;;;;;;;8.98;3.58;;;14.20;99.90;;;;;;5015543;28;20045;-75
2022/12/27 13:41:48;;;;;;;5.95;3.60;;;14.20;99.90;;;;;;4991616;28;20489;-75
2022/12/27 13:44:42;;;;;;;5.15;3.30;;;14.20;99.90;;;;;;5012181;28;20022;-75
2022/12/27 13:47:20;;;;;;;8.65;3.90;;;14.00;99.90;;;;;;4987022;28;20398;-75
2022/12/27 13:50:11;;;;;;;5.03;3.60;;;13.90;99.90;;;;;;4999975;28;20082;-74
2022/12/27 13:52:54;;;;;;;4.53;3.75;;;13.60;99.90;;;;;;5011524;28;20028;-74
2022/12/27 13:55:30;;;;;;;8.55;3.35;;;13.40;99.90;;;;;;5007745;28;20033;-75
2022/12/27 13:58:26;;;;;;;4.10;3.60;;;13.30;99.90;;;;;;5014819;28;20093;-75
2022/12/27 14:01:29;;;;;;;13.48;4.38;;;13.30;99.90;;;;;;4990899;28;20133;-75
2022/12/27 14:04:23;;;;;;;6.53;4.18;;;13.30;99.90;;;;;;4992381;28;20707;-74
2022/12/27 14:06:54;;;;;;;4.28;3.85;;;13.30;99.90;;;;;;5009961;28;20032;-75
2022/12/27 14:09:57;;;;;;;8.57;3.97;;;13.40;99.90;;;;;;5002990;28;20431;-75
2022/12/27 14:12:22;;;;;;;5.03;3.88;;;13.50;99.90;;;;;;4995177;28;20052;-74
2022/12/27 14:14:49;;;;;;;6.85;3.85;;;13.60;99.90;;;;;;5016252;28;20113;-74
2022/12/27 14:17:44;;;;;;;6.93;4.40;;;13.60;99.90;;;;;;5001062;28;20018;-75
2022/12/27 14:20:23;;;;;;;15.82;4.85;;;13.60;99.90;;;;;;5011956;28;20037;-74
2022/12/27 14:22:56;;;;;;;7.72;3.80;;;13.60;99.90;;;;;;5018279;28;20056;-75
2022/12/27 14:25:50;;;;;;;5.20;3.38;;;13.60;99.90;;;;;;4999399;28;20050;-75
2022/12/27 14:28:34;;;;;;;5.80;4.35;;;13.50;99.90;;;;;;5012071;28;20643;-74
2022/12/27 14:31:28;;;;;;;5.30;3.78;;;13.70;99.90;;;;;;5011713;28;20153;-76
2022/12/27 14:34:23;;;;;;;8.95;4.03;;;13.70;99.90;;;;;;5017001;28;20054;-76
2022/12/27 14:37:25;;;;;;;6.32;4.25;;;13.80;99.90;;;;;;5008367;28;20097;-75
2022/12/27 14:40:06;;;;;;;5.53;3.92;;;13.80;99.90;;;;;;5001419;28;20030;-76
2022/12/27 14:43:04;;;;;;;5.05;3.55;;;13.80;99.90;;;;;;4991891;28;20367;-75
2022/12/27 14:46:16;;;;;;;8.20;3.85;;;13.80;99.90;;;;;;5006754;28;20034;-76
2022/12/27 14:48:45;;;;;;;5.40;3.70;;;13.90;99.90;;;;;;5008041;28;20057;-76
2022/12/27 14:51:11;;;;;;;6.78;4.43;;;13.80;99.90;;;;;;5013100;28;20033;-76
2022/12/27 14:53:59;;;;;;;5.13;3.72;;;13.70;99.90;;;;;;5018259;28;20026;-76
2022/12/27 14:56:27;;;;;;;8.10;4.15;;;13.60;99.90;;;;;;4999992;28;20017;-76